createdAt,value
2022-08-21T00:00:00.042Z,1014.18
2022-08-21T00:00:09.452Z,1014.13
2022-08-21T00:00:18.866Z,1014.13
2022-08-21T00:00:28.365Z,1014.18
2022-08-21T00:00:41.135Z,1014.23
2022-08-21T00:00:47.244Z,1014.13
2022-08-21T00:01:07.206Z,1014.17
2022-08-21T00:01:15.505Z,1014.17
2022-08-21T00:01:24.932Z,1014.11
2022-08-21T00:01:34.343Z,1014.14
2022-08-21T00:01:43.956Z,1014.17
2022-08-21T00:01:53.234Z,1014.27
2022-08-21T00:02:02.675Z,1014.19
2022-08-21T00:02:12.072Z,1014.18
2022-08-21T00:02:21.555Z,1014.15
2022-08-21T00:02:30.967Z,1014.21
2022-08-21T00:02:40.350Z,1014.18
2022-08-21T00:02:49.735Z,1014.15
2022-08-21T00:02:59.369Z,1014.15
2022-08-21T00:03:08.554Z,1014.10
2022-08-21T00:03:17.965Z,1014.18
2022-08-21T00:03:27.397Z,1014.15
2022-08-21T00:03:36.845Z,1014.17
2022-08-21T00:03:55.689Z,1014.17
2022-08-21T00:04:05.103Z,1014.18
2022-08-21T00:04:22.031Z,1014.18
2022-08-21T00:04:29.206Z,1014.14
2022-08-21T00:04:33.365Z,1014.18
2022-08-21T00:04:54.558Z,1014.21
2022-08-21T00:04:57.081Z,1014.24
2022-08-21T00:05:01.589Z,1014.19
2022-08-21T00:05:11.026Z,1014.14
2022-08-21T00:05:20.451Z,1014.20
2022-08-21T00:05:29.889Z,1014.18
2022-08-21T00:05:39.310Z,1014.23
2022-08-21T00:05:48.738Z,1014.23
2022-08-21T00:05:58.157Z,1014.22
2022-08-21T00:06:07.589Z,1014.25
2022-08-21T00:06:17.001Z,1014.20
2022-08-21T00:06:35.840Z,1014.18
2022-08-21T00:06:45.266Z,1014.21
2022-08-21T00:06:54.688Z,1014.14
2022-08-21T00:07:04.115Z,1014.16
2022-08-21T00:07:13.593Z,1014.19
2022-08-21T00:07:23.017Z,1014.20
2022-08-21T00:07:32.415Z,1014.15
2022-08-21T00:07:41.801Z,1014.18
2022-08-21T00:07:51.220Z,1014.14
2022-08-21T00:08:00.640Z,1014.14
2022-08-21T00:08:10.061Z,1014.20
2022-08-21T00:08:19.494Z,1014.18
2022-08-21T00:08:28.901Z,1014.20
2022-08-21T00:08:38.337Z,1014.17
2022-08-21T00:08:47.756Z,1014.18
2022-08-21T00:08:57.193Z,1014.16
2022-08-21T00:09:07.006Z,1014.16
2022-08-21T00:09:16.825Z,1014.15
2022-08-21T00:09:35.660Z,1014.15
2022-08-21T00:09:45.053Z,1014.09
2022-08-21T00:09:54.540Z,1014.11
2022-08-21T00:10:03.991Z,1014.10
2022-08-21T00:10:13.406Z,1014.13
2022-08-21T00:10:22.817Z,1014.13
2022-08-21T00:10:32.264Z,1014.18
2022-08-21T00:10:42.171Z,1014.15
2022-08-21T00:10:51.789Z,1014.13
2022-08-21T00:11:01.203Z,1014.17
2022-08-21T00:11:10.618Z,1014.18
2022-08-21T00:11:20.040Z,1014.17
2022-08-21T00:11:29.465Z,1014.15
2022-08-21T00:11:38.913Z,1014.16
2022-08-21T00:11:48.306Z,1014.10
2022-08-21T00:11:57.713Z,1014.17
2022-08-21T00:12:07.119Z,1014.09
2022-08-21T00:12:25.947Z,1014.13
2022-08-21T00:12:35.369Z,1014.12
2022-08-21T00:12:44.788Z,1014.13
2022-08-21T00:12:54.331Z,1014.07
2022-08-21T00:13:03.647Z,1014.10
2022-08-21T00:13:13.050Z,1014.10
2022-08-21T00:13:22.436Z,1014.03
2022-08-21T00:13:31.878Z,1014.07
2022-08-21T00:13:41.315Z,1014.04
2022-08-21T00:13:50.734Z,1014.02
2022-08-21T00:14:00.157Z,1014.06
2022-08-21T00:14:09.556Z,1014.09
2022-08-21T00:14:18.955Z,1014.07
2022-08-21T00:14:28.362Z,1014.05
2022-08-21T00:14:37.786Z,1014.10
2022-08-21T00:14:47.183Z,1014.07
2022-08-21T00:15:05.986Z,1014.09
2022-08-21T00:15:15.420Z,1014.10
2022-08-21T00:15:24.807Z,1014.11
2022-08-21T00:15:34.208Z,1014.09
2022-08-21T00:15:43.594Z,1014.14
2022-08-21T00:15:52.997Z,1014.05
2022-08-21T00:16:02.421Z,1014.11
2022-08-21T00:16:11.801Z,1014.06
2022-08-21T00:16:21.206Z,1014.02
2022-08-21T00:16:30.626Z,1014.07
2022-08-21T00:16:40.013Z,1014.08
2022-08-21T00:16:49.409Z,1014.12
2022-08-21T00:17:00.152Z,1014.07
2022-08-21T00:17:08.210Z,1014.06
2022-08-21T00:17:17.635Z,1014.08
2022-08-21T00:17:27.051Z,1014.06
2022-08-21T00:17:45.891Z,1014.05
2022-08-21T00:17:55.280Z,1014.11
2022-08-21T00:18:04.694Z,1014.08
2022-08-21T00:18:14.095Z,1014.05
2022-08-21T00:18:23.566Z,1014.06
2022-08-21T00:18:32.962Z,1014.04
2022-08-21T00:18:42.382Z,1014.04
2022-08-21T00:18:51.793Z,1014.01
2022-08-21T00:19:01.430Z,1014.04
2022-08-21T00:19:10.838Z,1014.03
2022-08-21T00:19:20.238Z,1014.07
2022-08-21T00:19:29.642Z,1014.06
2022-08-21T00:19:39.043Z,1014.04
2022-08-21T00:19:48.446Z,1013.99
2022-08-21T00:19:57.859Z,1014.04
2022-08-21T00:20:07.274Z,1014.05
2022-08-21T00:20:26.077Z,1014.03
2022-08-21T00:20:35.474Z,1014.03
2022-08-21T00:20:44.879Z,1014.01
2022-08-21T00:20:54.276Z,1014.08
2022-08-21T00:21:03.684Z,1014.06
2022-08-21T00:21:13.087Z,1014.03
2022-08-21T00:21:22.501Z,1014.04
2022-08-21T00:21:31.922Z,1014.06
2022-08-21T00:21:44.475Z,1014.01
2022-08-21T00:21:50.751Z,1014.03
2022-08-21T00:22:00.158Z,1014.06
2022-08-21T00:22:09.589Z,1013.97
2022-08-21T00:22:18.996Z,1014.04
2022-08-21T00:22:28.411Z,1014.04
2022-08-21T00:22:37.804Z,1014.04
2022-08-21T00:22:47.226Z,1014.05
2022-08-21T00:23:06.039Z,1014.07
2022-08-21T00:23:15.444Z,1013.97
2022-08-21T00:23:24.864Z,1013.99
2022-08-21T00:23:34.255Z,1014.09
2022-08-21T00:23:43.693Z,1014.00
2022-08-21T00:23:53.116Z,1013.95
2022-08-21T00:24:02.524Z,1014.00
2022-08-21T00:24:11.937Z,1014.00
2022-08-21T00:24:21.378Z,1013.96
2022-08-21T00:24:30.786Z,1014.01
2022-08-21T00:24:40.202Z,1014.04
2022-08-21T00:24:49.621Z,1013.97
2022-08-21T00:24:59.044Z,1013.95
2022-08-21T00:25:08.496Z,1013.97
2022-08-21T00:25:17.901Z,1013.93
2022-08-21T00:25:27.309Z,1013.96
2022-08-21T00:25:36.760Z,1013.90
2022-08-21T00:25:55.612Z,1013.95
2022-08-21T00:26:05.029Z,1013.93
2022-08-21T00:26:14.457Z,1013.88
2022-08-21T00:26:23.858Z,1013.93
2022-08-21T00:26:33.268Z,1013.93
2022-08-21T00:26:42.680Z,1013.98
2022-08-21T00:26:52.107Z,1013.91
2022-08-21T00:27:01.542Z,1013.93
2022-08-21T00:27:10.974Z,1014.01
2022-08-21T00:27:20.417Z,1013.94
2022-08-21T00:27:29.848Z,1013.92
2022-08-21T00:27:39.271Z,1013.95
2022-08-21T00:27:48.695Z,1013.94
2022-08-21T00:27:58.107Z,1013.97
2022-08-21T00:28:07.532Z,1013.95
2022-08-21T00:28:16.959Z,1013.98
2022-08-21T00:28:35.792Z,1013.97
2022-08-21T00:28:45.388Z,1013.92
2022-08-21T00:28:54.794Z,1013.92
2022-08-21T00:29:04.221Z,1013.92
2022-08-21T00:29:13.649Z,1013.89
2022-08-21T00:29:23.054Z,1013.94
2022-08-21T00:29:32.461Z,1013.95
2022-08-21T00:29:41.875Z,1013.93
2022-08-21T00:29:51.356Z,1014.00
2022-08-21T00:30:00.786Z,1014.04
2022-08-21T00:30:10.246Z,1013.90
2022-08-21T00:30:23.268Z,1014.01
2022-08-21T00:30:29.169Z,1013.91
2022-08-21T00:30:38.578Z,1013.99
2022-08-21T00:30:48.002Z,1014.01
2022-08-21T00:30:57.405Z,1013.96
2022-08-21T00:31:06.807Z,1013.98
2022-08-21T00:31:25.628Z,1014.05
2022-08-21T00:31:35.041Z,1014.01
2022-08-21T00:31:44.449Z,1014.03
2022-08-21T00:31:53.843Z,1013.96
2022-08-21T00:32:03.256Z,1013.98
2022-08-21T00:32:12.681Z,1014.04
2022-08-21T00:32:22.091Z,1013.99
2022-08-21T00:32:31.518Z,1014.05
2022-08-21T00:32:40.950Z,1013.94
2022-08-21T00:32:50.399Z,1013.99
2022-08-21T00:33:00.016Z,1013.96
2022-08-21T00:33:09.267Z,1013.93
2022-08-21T00:33:18.700Z,1013.93
2022-08-21T00:33:28.152Z,1013.93
2022-08-21T00:33:37.576Z,1013.89
2022-08-21T00:33:47.012Z,1013.93
2022-08-21T00:34:05.820Z,1013.99
2022-08-21T00:34:15.251Z,1013.93
2022-08-21T00:34:24.671Z,1013.96
2022-08-21T00:34:34.093Z,1013.96
2022-08-21T00:34:43.508Z,1014.00
2022-08-21T00:34:52.939Z,1013.97
2022-08-21T00:35:02.326Z,1013.97
2022-08-21T00:35:11.753Z,1013.95
2022-08-21T00:35:21.163Z,1013.95
2022-08-21T00:35:30.566Z,1013.94
2022-08-21T00:35:39.971Z,1014.01
2022-08-21T00:35:49.389Z,1014.05
2022-08-21T00:35:58.817Z,1014.02
2022-08-21T00:36:08.441Z,1013.96
2022-08-21T00:36:17.860Z,1013.98
2022-08-21T00:36:27.454Z,1013.99
2022-08-21T00:36:37.309Z,1013.97
2022-08-21T00:36:46.742Z,1013.98
2022-08-21T00:37:05.821Z,1013.95
2022-08-21T00:37:15.243Z,1014.00
2022-08-21T00:37:24.664Z,1014.00
2022-08-21T00:37:35.247Z,1013.99
2022-08-21T00:37:43.501Z,1014.01
2022-08-21T00:37:52.925Z,1013.98
2022-08-21T00:38:04.182Z,1013.95
2022-08-21T00:38:13.579Z,1014.01
2022-08-21T00:38:23.157Z,1013.95
2022-08-21T00:38:32.588Z,1013.96
2022-08-21T00:38:42.003Z,1014.01
2022-08-21T00:38:51.517Z,1013.99
2022-08-21T00:39:00.951Z,1014.01
2022-08-21T00:39:10.368Z,1014.00
2022-08-21T00:39:19.826Z,1014.02
2022-08-21T00:39:29.245Z,1013.98
2022-08-21T00:39:38.755Z,1014.01
2022-08-21T00:39:48.144Z,1014.00
2022-08-21T00:39:57.613Z,1013.93
2022-08-21T00:40:06.938Z,1014.05
2022-08-21T00:40:25.738Z,1013.97
2022-08-21T00:40:35.158Z,1013.92
2022-08-21T00:40:44.585Z,1014.05
2022-08-21T00:40:53.991Z,1013.99
2022-08-21T00:41:21.059Z,1013.99
2022-08-21T00:41:36.672Z,1014.00
2022-08-21T00:41:37.512Z,1013.99
2022-08-21T00:41:38.363Z,1014.03
2022-08-21T00:41:41.211Z,1013.95
2022-08-21T00:41:50.643Z,1014.01
2022-08-21T00:42:00.046Z,1013.97
2022-08-21T00:42:09.479Z,1014.01
2022-08-21T00:42:18.891Z,1014.04
2022-08-21T00:42:28.311Z,1014.00
2022-08-21T00:42:37.766Z,1014.01
2022-08-21T00:42:53.536Z,1014.01
2022-08-21T00:43:06.024Z,1014.00
2022-08-21T00:43:15.461Z,1013.99
2022-08-21T00:43:24.876Z,1013.99
2022-08-21T00:43:34.598Z,1013.94
2022-08-21T00:43:44.296Z,1013.91
2022-08-21T00:43:53.729Z,1014.04
2022-08-21T00:44:03.144Z,1014.02
2022-08-21T00:44:12.554Z,1013.97
2022-08-21T00:44:21.974Z,1013.98
2022-08-21T00:44:31.442Z,1013.96
2022-08-21T00:44:40.852Z,1013.93
2022-08-21T00:44:50.267Z,1014.01
2022-08-21T00:44:59.696Z,1013.98
2022-08-21T00:45:09.101Z,1013.98
2022-08-21T00:45:18.501Z,1013.93
2022-08-21T00:45:27.928Z,1013.91
2022-08-21T00:45:37.328Z,1013.97
2022-08-21T00:45:57.520Z,1013.92
2022-08-21T00:46:07.118Z,1014.00
2022-08-21T00:46:16.540Z,1013.97
2022-08-21T00:46:28.368Z,1014.02
2022-08-21T00:46:35.746Z,1014.01
2022-08-21T00:46:45.146Z,1013.99
2022-08-21T00:46:54.550Z,1013.96
2022-08-21T00:47:03.972Z,1013.95
2022-08-21T00:47:13.393Z,1013.96
2022-08-21T00:47:22.814Z,1013.89
2022-08-21T00:47:32.240Z,1013.94
2022-08-21T00:47:41.653Z,1013.97
2022-08-21T00:47:51.083Z,1013.95
2022-08-21T00:48:00.462Z,1014.02
2022-08-21T00:48:09.891Z,1013.92
2022-08-21T00:48:19.306Z,1013.95
2022-08-21T00:48:28.719Z,1013.93
2022-08-21T00:48:38.139Z,1014.02
2022-08-21T00:48:47.535Z,1013.94
2022-08-21T00:48:59.126Z,1013.98
2022-08-21T00:49:15.823Z,1013.92
2022-08-21T00:49:25.235Z,1013.94
2022-08-21T00:49:34.637Z,1013.97
2022-08-21T00:49:44.052Z,1013.98
2022-08-21T00:49:53.478Z,1013.93
2022-08-21T00:50:02.911Z,1013.95
2022-08-21T00:50:12.348Z,1013.97
2022-08-21T00:50:22.368Z,1013.92
2022-08-21T00:50:31.197Z,1013.86
2022-08-21T00:50:40.610Z,1014.04
2022-08-21T00:50:50.010Z,1013.94
2022-08-21T00:50:59.417Z,1013.95
2022-08-21T00:51:08.817Z,1013.91
2022-08-21T00:51:18.233Z,1013.94
2022-08-21T00:51:27.652Z,1013.91
2022-08-21T00:51:38.367Z,1013.90
2022-08-21T00:51:55.929Z,1014.00
2022-08-21T00:52:05.336Z,1013.95
2022-08-21T00:52:14.756Z,1013.92
2022-08-21T00:52:24.175Z,1013.93
2022-08-21T00:52:33.606Z,1013.86
2022-08-21T00:52:43.023Z,1013.92
2022-08-21T00:52:52.482Z,1013.91
2022-08-21T00:53:01.897Z,1013.94
2022-08-21T00:53:11.348Z,1013.93
2022-08-21T00:53:20.742Z,1013.91
2022-08-21T00:53:30.134Z,1013.92
2022-08-21T00:53:39.528Z,1013.91
2022-08-21T00:53:51.716Z,1013.97
2022-08-21T00:53:58.353Z,1013.94
2022-08-21T00:54:10.786Z,1013.92
2022-08-21T00:54:18.475Z,1013.89
2022-08-21T00:54:36.046Z,1013.95
2022-08-21T00:54:46.600Z,1013.86
2022-08-21T00:54:54.852Z,1013.94
2022-08-21T00:55:04.331Z,1013.88
2022-08-21T00:55:13.757Z,1013.93
2022-08-21T00:55:23.435Z,1013.94
2022-08-21T00:55:32.677Z,1013.91
2022-08-21T00:55:42.016Z,1013.98
2022-08-21T00:55:51.436Z,1013.91
2022-08-21T00:56:00.857Z,1013.91
2022-08-21T00:56:10.278Z,1013.91
2022-08-21T00:56:19.700Z,1013.86
2022-08-21T00:56:29.121Z,1013.90
2022-08-21T00:56:38.580Z,1013.95
2022-08-21T00:56:47.988Z,1013.90
2022-08-21T00:56:57.380Z,1013.85
2022-08-21T00:57:06.808Z,1013.94
2022-08-21T00:57:25.640Z,1013.86
2022-08-21T00:57:35.080Z,1013.92
2022-08-21T00:57:44.524Z,1013.84
2022-08-21T00:57:53.989Z,1013.92
2022-08-21T00:58:03.394Z,1013.97
2022-08-21T00:58:12.800Z,1013.88
2022-08-21T00:58:22.211Z,1013.87
2022-08-21T00:58:31.603Z,1013.88
2022-08-21T00:58:41.016Z,1013.91
2022-08-21T00:58:53.518Z,1013.87
2022-08-21T00:58:59.891Z,1013.88
2022-08-21T00:59:09.342Z,1013.88
2022-08-21T00:59:18.766Z,1013.93
2022-08-21T00:59:28.172Z,1013.88
2022-08-21T00:59:37.568Z,1013.90
2022-08-21T00:59:46.962Z,1013.88
2022-08-21T01:00:05.777Z,1013.91
2022-08-21T01:00:15.167Z,1013.89
2022-08-21T01:00:24.571Z,1013.88
2022-08-21T01:00:33.960Z,1013.90
2022-08-21T01:00:43.437Z,1013.94
2022-08-21T01:00:52.982Z,1013.89
2022-08-21T01:01:05.644Z,1013.93
2022-08-21T01:01:11.736Z,1013.93
2022-08-21T01:01:21.141Z,1013.91
2022-08-21T01:01:30.523Z,1013.83
2022-08-21T01:01:40.029Z,1013.83
2022-08-21T01:01:49.326Z,1013.87
2022-08-21T01:01:58.754Z,1013.82
2022-08-21T01:02:08.223Z,1013.86
2022-08-21T01:02:17.660Z,1013.89
2022-08-21T01:02:27.064Z,1013.91
2022-08-21T01:02:45.859Z,1013.85
2022-08-21T01:02:55.346Z,1013.94
2022-08-21T01:03:07.481Z,1013.95
2022-08-21T01:03:14.114Z,1013.88
2022-08-21T01:03:23.834Z,1013.87
2022-08-21T01:03:32.958Z,1013.93
2022-08-21T01:03:44.115Z,1013.85
2022-08-21T01:03:51.962Z,1013.90
2022-08-21T01:04:01.382Z,1013.94
2022-08-21T01:04:10.822Z,1013.88
2022-08-21T01:04:20.217Z,1013.94
2022-08-21T01:04:29.636Z,1013.90
2022-08-21T01:04:39.047Z,1013.90
2022-08-21T01:04:48.462Z,1013.88
2022-08-21T01:04:57.881Z,1013.88
2022-08-21T01:05:07.303Z,1013.91
2022-08-21T01:05:26.123Z,1013.91
2022-08-21T01:05:35.534Z,1013.86
2022-08-21T01:05:44.955Z,1013.91
2022-08-21T01:05:54.384Z,1013.91
2022-08-21T01:06:03.789Z,1013.86
2022-08-21T01:06:13.202Z,1013.89
2022-08-21T01:06:22.636Z,1013.86
2022-08-21T01:06:32.062Z,1013.88
2022-08-21T01:06:41.478Z,1013.86
2022-08-21T01:06:50.874Z,1013.87
2022-08-21T01:07:00.284Z,1013.92
2022-08-21T01:07:09.724Z,1013.91
2022-08-21T01:07:19.134Z,1013.87
2022-08-21T01:07:28.535Z,1013.94
2022-08-21T01:07:37.933Z,1013.92
2022-08-21T01:07:47.333Z,1013.87
2022-08-21T01:07:56.754Z,1013.87
2022-08-21T01:08:15.583Z,1013.88
2022-08-21T01:08:25.039Z,1013.83
2022-08-21T01:08:34.460Z,1013.87
2022-08-21T01:08:46.860Z,1013.90
2022-08-21T01:08:53.340Z,1013.88
2022-08-21T01:09:02.760Z,1013.86
2022-08-21T01:09:12.194Z,1013.83
2022-08-21T01:09:21.638Z,1013.82
2022-08-21T01:09:31.088Z,1013.84
2022-08-21T01:09:40.517Z,1013.87
2022-08-21T01:09:49.925Z,1013.82
2022-08-21T01:09:59.366Z,1013.80
2022-08-21T01:10:08.809Z,1013.87
2022-08-21T01:10:24.171Z,1013.85
2022-08-21T01:10:27.618Z,1013.87
2022-08-21T01:10:37.032Z,1013.80
2022-08-21T01:10:55.869Z,1013.84
2022-08-21T01:11:05.304Z,1013.77
2022-08-21T01:11:14.716Z,1013.84
2022-08-21T01:11:24.144Z,1013.85
2022-08-21T01:11:33.604Z,1013.84
2022-08-21T01:11:43.003Z,1013.80
2022-08-21T01:11:52.408Z,1013.82
2022-08-21T01:12:01.837Z,1013.86
2022-08-21T01:12:11.246Z,1013.80
2022-08-21T01:12:20.674Z,1013.90
2022-08-21T01:12:30.079Z,1013.89
2022-08-21T01:12:39.502Z,1013.90
2022-08-21T01:12:48.951Z,1013.95
2022-08-21T01:12:58.631Z,1013.84
2022-08-21T01:13:07.765Z,1013.85
2022-08-21T01:13:17.186Z,1013.95
2022-08-21T01:13:36.314Z,1013.95
2022-08-21T01:13:45.731Z,1013.90
2022-08-21T01:13:59.967Z,1013.89
2022-08-21T01:14:09.387Z,1013.90
2022-08-21T01:14:18.844Z,1013.90
2022-08-21T01:14:28.285Z,1013.91
2022-08-21T01:14:37.689Z,1013.91
2022-08-21T01:14:47.110Z,1013.96
2022-08-21T01:14:56.542Z,1013.94
2022-08-21T01:15:05.966Z,1013.94
2022-08-21T01:15:15.374Z,1013.94
2022-08-21T01:15:24.808Z,1013.97
2022-08-21T01:15:34.236Z,1013.91
2022-08-21T01:15:43.648Z,1013.86
2022-08-21T01:15:53.085Z,1013.88
2022-08-21T01:16:02.495Z,1013.86
2022-08-21T01:16:11.931Z,1013.90
2022-08-21T01:16:21.381Z,1013.99
2022-08-21T01:16:30.803Z,1013.85
2022-08-21T01:16:40.220Z,1013.96
2022-08-21T01:16:49.638Z,1013.91
2022-08-21T01:16:59.060Z,1013.89
2022-08-21T01:17:08.483Z,1013.97
2022-08-21T01:17:17.903Z,1013.96
2022-08-21T01:17:27.317Z,1013.93
2022-08-21T01:17:36.754Z,1014.01
2022-08-21T01:17:55.583Z,1013.99
2022-08-21T01:18:05.167Z,1013.92
2022-08-21T01:18:14.595Z,1013.94
2022-08-21T01:18:24.010Z,1013.91
2022-08-21T01:18:33.412Z,1014.02
2022-08-21T01:18:42.830Z,1013.96
2022-08-21T01:18:52.268Z,1013.96
2022-08-21T01:19:01.695Z,1013.95
2022-08-21T01:19:11.116Z,1013.88
2022-08-21T01:19:20.542Z,1013.94
2022-08-21T01:19:29.946Z,1013.89
2022-08-21T01:19:39.364Z,1013.94
2022-08-21T01:19:48.784Z,1013.89
2022-08-21T01:19:58.208Z,1013.86
2022-08-21T01:20:07.641Z,1013.90
2022-08-21T01:20:17.077Z,1014.01
2022-08-21T01:20:35.913Z,1013.89
2022-08-21T01:20:45.363Z,1013.95
2022-08-21T01:20:54.855Z,1013.91
2022-08-21T01:21:04.264Z,1013.97
2022-08-21T01:21:13.695Z,1013.90
2022-08-21T01:21:23.118Z,1013.91
2022-08-21T01:21:32.545Z,1013.93
2022-08-21T01:21:41.965Z,1013.89
2022-08-21T01:21:51.462Z,1013.89
2022-08-21T01:22:00.945Z,1013.90
2022-08-21T01:22:10.355Z,1013.89
2022-08-21T01:22:19.772Z,1013.85
2022-08-21T01:22:29.199Z,1013.90
2022-08-21T01:22:38.649Z,1013.89
2022-08-21T01:22:48.034Z,1013.88
2022-08-21T01:22:57.631Z,1013.89
2022-08-21T01:23:07.188Z,1013.91
2022-08-21T01:23:26.034Z,1013.93
2022-08-21T01:23:35.451Z,1013.89
2022-08-21T01:23:44.879Z,1013.85
2022-08-21T01:23:54.345Z,1013.91
2022-08-21T01:24:03.742Z,1013.91
2022-08-21T01:24:13.186Z,1013.89
2022-08-21T01:24:22.619Z,1013.88
2022-08-21T01:24:32.035Z,1013.95
2022-08-21T01:24:41.466Z,1013.94
2022-08-21T01:24:50.890Z,1013.98
2022-08-21T01:25:00.295Z,1013.91
2022-08-21T01:25:09.711Z,1013.87
2022-08-21T01:25:19.122Z,1013.92
2022-08-21T01:25:28.565Z,1013.93
2022-08-21T01:25:37.995Z,1013.92
2022-08-21T01:25:47.408Z,1013.98
2022-08-21T01:25:56.834Z,1013.95
2022-08-21T01:26:15.710Z,1014.02
2022-08-21T01:26:31.181Z,1014.01
2022-08-21T01:26:34.823Z,1013.99
2022-08-21T01:26:44.041Z,1014.05
2022-08-21T01:26:53.472Z,1013.96
2022-08-21T01:27:02.892Z,1013.93
2022-08-21T01:27:12.284Z,1013.93
2022-08-21T01:27:21.725Z,1013.94
2022-08-21T01:27:31.143Z,1013.97
2022-08-21T01:27:40.562Z,1013.99
2022-08-21T01:27:49.995Z,1013.97
2022-08-21T01:27:59.403Z,1014.02
2022-08-21T01:28:09.072Z,1014.00
2022-08-21T01:28:18.505Z,1013.96
2022-08-21T01:28:27.921Z,1014.09
2022-08-21T01:28:37.329Z,1014.00
2022-08-21T01:28:46.749Z,1013.98
2022-08-21T01:29:05.629Z,1014.02
2022-08-21T01:29:15.114Z,1013.99
2022-08-21T01:29:24.542Z,1013.96
2022-08-21T01:29:33.950Z,1014.03
2022-08-21T01:29:43.352Z,1014.09
2022-08-21T01:29:52.752Z,1013.99
2022-08-21T01:30:02.155Z,1013.99
2022-08-21T01:30:11.579Z,1014.03
2022-08-21T01:30:21.017Z,1014.01
2022-08-21T01:30:30.414Z,1014.06
2022-08-21T01:30:39.838Z,1013.95
2022-08-21T01:30:49.258Z,1014.01
2022-08-21T01:30:58.677Z,1013.99
2022-08-21T01:31:08.085Z,1013.95
2022-08-21T01:31:17.488Z,1014.00
2022-08-21T01:31:26.880Z,1013.94
2022-08-21T01:31:45.680Z,1013.99
2022-08-21T01:31:55.086Z,1013.93
2022-08-21T01:32:04.487Z,1014.00
2022-08-21T01:32:13.914Z,1013.95
2022-08-21T01:32:23.327Z,1013.88
2022-08-21T01:32:32.734Z,1013.98
2022-08-21T01:32:42.130Z,1013.97
2022-08-21T01:32:51.601Z,1013.93
2022-08-21T01:33:00.977Z,1013.95
2022-08-21T01:33:10.372Z,1013.85
2022-08-21T01:33:19.789Z,1013.94
2022-08-21T01:33:29.213Z,1014.04
2022-08-21T01:33:38.614Z,1013.99
2022-08-21T01:33:48.023Z,1013.97
2022-08-21T01:33:57.448Z,1013.93
2022-08-21T01:34:06.854Z,1013.97
2022-08-21T01:34:25.670Z,1013.92
2022-08-21T01:34:35.067Z,1013.98
2022-08-21T01:34:44.466Z,1013.93
2022-08-21T01:34:53.918Z,1013.90
2022-08-21T01:35:03.321Z,1013.92
2022-08-21T01:35:12.742Z,1013.92
2022-08-21T01:35:22.154Z,1013.94
2022-08-21T01:35:31.585Z,1013.88
2022-08-21T01:35:40.999Z,1013.87
2022-08-21T01:35:50.394Z,1013.84
2022-08-21T01:35:59.795Z,1013.89
2022-08-21T01:36:09.181Z,1013.90
2022-08-21T01:36:18.581Z,1013.90
2022-08-21T01:36:28.006Z,1013.92
2022-08-21T01:36:37.439Z,1013.86
2022-08-21T01:36:46.835Z,1013.91
2022-08-21T01:37:05.680Z,1013.82
2022-08-21T01:37:15.410Z,1013.84
2022-08-21T01:37:24.963Z,1013.85
2022-08-21T01:37:34.379Z,1013.87
2022-08-21T01:37:43.788Z,1013.93
2022-08-21T01:37:53.206Z,1013.86
2022-08-21T01:38:02.585Z,1013.87
2022-08-21T01:38:12.057Z,1013.91
2022-08-21T01:38:21.460Z,1013.86
2022-08-21T01:38:30.875Z,1013.90
2022-08-21T01:38:40.293Z,1013.87
2022-08-21T01:38:49.686Z,1013.85
2022-08-21T01:38:59.124Z,1013.82
2022-08-21T01:39:08.532Z,1013.85
2022-08-21T01:39:17.924Z,1013.88
2022-08-21T01:39:27.331Z,1013.91
2022-08-21T01:39:36.818Z,1013.93
2022-08-21T01:39:55.673Z,1013.87
2022-08-21T01:40:05.084Z,1013.90
2022-08-21T01:40:14.466Z,1013.85
2022-08-21T01:40:23.908Z,1013.88
2022-08-21T01:40:33.187Z,1013.81
2022-08-21T01:40:42.609Z,1013.88
2022-08-21T01:40:52.024Z,1013.83
2022-08-21T01:41:01.418Z,1013.83
2022-08-21T01:41:10.808Z,1013.80
2022-08-21T01:41:20.217Z,1013.82
2022-08-21T01:41:29.607Z,1013.87
2022-08-21T01:41:38.998Z,1013.87
2022-08-21T01:41:48.421Z,1013.90
2022-08-21T01:41:57.831Z,1013.89
2022-08-21T01:42:07.234Z,1013.85
2022-08-21T01:42:26.062Z,1013.83
2022-08-21T01:42:35.484Z,1013.85
2022-08-21T01:42:44.917Z,1013.88
2022-08-21T01:42:54.400Z,1013.87
2022-08-21T01:43:03.744Z,1013.87
2022-08-21T01:43:13.154Z,1013.85
2022-08-21T01:43:23.851Z,1013.83
2022-08-21T01:43:35.595Z,1013.85
2022-08-21T01:43:41.404Z,1013.87
2022-08-21T01:43:50.818Z,1013.85
2022-08-21T01:44:00.263Z,1013.82
2022-08-21T01:44:09.652Z,1013.83
2022-08-21T01:44:19.054Z,1013.84
2022-08-21T01:44:28.461Z,1013.88
2022-08-21T01:44:37.884Z,1013.90
2022-08-21T01:44:47.306Z,1013.87
2022-08-21T01:45:06.128Z,1013.90
2022-08-21T01:45:15.532Z,1013.87
2022-08-21T01:45:24.952Z,1013.88
2022-08-21T01:45:34.375Z,1013.84
2022-08-21T01:45:43.805Z,1013.86
2022-08-21T01:45:53.214Z,1013.84
2022-08-21T01:46:02.646Z,1013.85
2022-08-21T01:46:12.056Z,1013.92
2022-08-21T01:46:21.478Z,1013.86
2022-08-21T01:46:30.926Z,1013.98
2022-08-21T01:46:40.323Z,1013.85
2022-08-21T01:46:49.740Z,1013.86
2022-08-21T01:46:59.162Z,1013.91
2022-08-21T01:47:08.585Z,1013.93
2022-08-21T01:47:18.255Z,1013.93
2022-08-21T01:47:27.432Z,1013.90
2022-08-21T01:47:36.844Z,1013.90
2022-08-21T01:47:55.757Z,1013.89
2022-08-21T01:48:05.188Z,1013.94
2022-08-21T01:48:14.612Z,1013.98
2022-08-21T01:48:24.050Z,1013.90
2022-08-21T01:48:33.498Z,1013.92
2022-08-21T01:48:42.902Z,1013.90
2022-08-21T01:48:52.321Z,1013.93
2022-08-21T01:49:01.762Z,1013.91
2022-08-21T01:49:11.212Z,1014.00
2022-08-21T01:49:20.625Z,1013.93
2022-08-21T01:49:30.038Z,1014.03
2022-08-21T01:49:39.491Z,1013.98
2022-08-21T01:49:48.904Z,1013.97
2022-08-21T01:49:58.327Z,1013.96
2022-08-21T01:50:07.716Z,1014.02
2022-08-21T01:50:17.155Z,1014.02
2022-08-21T01:50:36.007Z,1014.05
2022-08-21T01:50:45.434Z,1014.03
2022-08-21T01:50:56.860Z,1013.99
2022-08-21T01:51:04.244Z,1014.04
2022-08-21T01:51:13.687Z,1013.99
2022-08-21T01:51:23.102Z,1014.08
2022-08-21T01:51:32.563Z,1014.02
2022-08-21T01:51:41.991Z,1014.08
2022-08-21T01:51:51.449Z,1013.97
2022-08-21T01:52:00.941Z,1014.01
2022-08-21T01:52:10.353Z,1014.05
2022-08-21T01:52:19.777Z,1014.07
2022-08-21T01:52:29.204Z,1014.04
2022-08-21T01:52:38.648Z,1014.03
2022-08-21T01:52:48.070Z,1014.05
2022-08-21T01:52:57.662Z,1014.09
2022-08-21T01:53:06.919Z,1014.04
2022-08-21T01:53:33.281Z,1014.05
2022-08-21T01:53:35.196Z,1014.01
2022-08-21T01:53:44.647Z,1013.99
2022-08-21T01:53:54.060Z,1014.02
2022-08-21T01:54:03.506Z,1013.96
2022-08-21T01:54:12.928Z,1014.04
2022-08-21T01:54:22.374Z,1013.99
2022-08-21T01:54:31.784Z,1013.99
2022-08-21T01:54:41.194Z,1014.03
2022-08-21T01:54:51.134Z,1014.02
2022-08-21T01:55:00.018Z,1014.00
2022-08-21T01:55:09.435Z,1013.99
2022-08-21T01:55:18.857Z,1013.96
2022-08-21T01:55:28.263Z,1014.03
2022-08-21T01:55:37.682Z,1013.92
2022-08-21T01:55:47.103Z,1013.94
2022-08-21T01:56:05.948Z,1013.97
2022-08-21T01:56:15.352Z,1013.96
2022-08-21T01:56:24.797Z,1013.97
2022-08-21T01:56:34.282Z,1013.95
2022-08-21T01:56:43.748Z,1013.99
2022-08-21T01:56:53.150Z,1013.91
2022-08-21T01:57:02.571Z,1013.93
2022-08-21T01:57:11.983Z,1013.95
2022-08-21T01:57:21.416Z,1014.03
2022-08-21T01:57:30.837Z,1013.98
2022-08-21T01:57:40.260Z,1013.94
2022-08-21T01:57:49.679Z,1013.96
2022-08-21T01:57:59.093Z,1013.99
2022-08-21T01:58:08.524Z,1013.94
2022-08-21T01:58:17.917Z,1014.05
2022-08-21T01:58:27.336Z,1014.00
2022-08-21T01:58:36.765Z,1013.99
2022-08-21T01:58:55.628Z,1013.89
2022-08-21T01:59:05.074Z,1014.03
2022-08-21T01:59:14.496Z,1013.97
2022-08-21T01:59:23.929Z,1014.01
2022-08-21T01:59:33.319Z,1013.96
2022-08-21T01:59:42.720Z,1013.94
2022-08-21T01:59:52.149Z,1013.94
2022-08-21T02:00:01.647Z,1013.99
2022-08-21T02:00:11.095Z,1013.99
2022-08-21T02:00:20.534Z,1013.93
2022-08-21T02:00:29.970Z,1014.00
2022-08-21T02:00:39.412Z,1013.92
2022-08-21T02:00:48.912Z,1014.04